Impacts METAR Board
IDs:

KSFO - San Francisco Intl, CA, US

Updated at: 1600 UTC 03 Dec 2021
Potential Impact None Slight Moderate High
Time 03/04Z 03/05Z 03/06Z 03/07Z 03/08Z 03/09Z 03/10Z 03/11Z 03/12Z 03/13Z 03/14Z 03/15Z 03/16Z
Temp54 53 53 52 51 53 54 53 53 53 53 53 53
Dewpt51 50 50 48 49 50 51 50 50 50 50 50 50
Altim30.10 30.10 30.11 30.12 30.11 30.11 30.12 30.11 30.10 30.10 30.11 30.12 30.13
VIS10 10 9 9 8 5 5 5 5 4 4 4 4
CIG180 -- -- -- 10 7 7 7 7 6 6 6 7
CoverBKNSCTFEWSCTBKNOVCOVCOVCOVCOVCOVCOVCOVC
FltCatVFRVFRVFRVFRMVFRIFRIFRIFRIFRIFRIFRIFRIFR
WX----------BRBRBRBRBRBRBRBR
WDir300290210220220310300250230310320190190
WSpd10 6 3 3 3 4 3 3 3 4 6 4 3
WGst-- -- -- -- -- -- -- -- -- -- -- -- --
Raw hourly METARs
KSFO 030356Z 30010KT 10SM FEW005 BKN180 12/11 A3010 RMK AO2 SLP192 T01220106
KSFO 030456Z 29006KT 10SM SCT180 12/10 A3010 RMK AO2 SLP192 T01170100
KSFO 030556Z 21003KT 9SM FEW007 FEW180 12/10 A3011 RMK AO2 SLP197 T01170100 10161 20117 51010
KSFO 030656Z 22003KT 9SM FEW006 SCT180 11/09 A3012 RMK AO2 SLP197 T01110089
KSFO 030756Z 22003KT 8SM FEW005 BKN010 11/09 A3011 RMK AO2 SLP197 T01060094 401670094
KSFO 030856Z 31004KT 5SM BR FEW004 OVC007 12/10 A3011 RMK AO2 SLP197 T01170100 58000
KSFO 030956Z 30003KT 5SM BR FEW004 OVC007 12/11 A3012 RMK AO2 SLP198 T01220106
KSFO 031056Z 25003KT 5SM BR FEW004 OVC007 12/10 A3011 RMK AO2 SLP196 T01170100
KSFO 031156Z 23003KT 5SM BR FEW004 OVC007 12/10 A3010 RMK AO2 SLP193 T01170100 10122 20106 58003
KSFO 031256Z 31004KT 4SM BR FEW004 OVC006 12/10 A3010 RMK AO2 SLP194 T01170100
KSFO 031356Z 32006KT 4SM BR FEW004 OVC006 12/10 A3011 RMK AO2 SLP196 T01170100
KSFO 031456Z 19004KT 4SM BR FEW004 OVC006 12/10 A3012 RMK AO2 SLP198 T01170100 53004
KSFO 031556Z 19003KT 4SM BR FEW003 OVC007 12/10 A3013 RMK AO2 SLP202 T01170100



Page loaded:  16:22 UTC  |   08:22 AM Pacific  |   09:22 AM Mountain  |   10:22 AM Central  |   11:22 AM Eastern

 

ADVISORIES

FORECASTS

FORECASTS

OBSERVATIONS

USER TOOLS

ABOUT US